Time;durP1;ratioP1;P1;durP2;ratioP2;P2;SDS_P1;SDS_P2;PMS_P1;PMS_P2;Temp;Humidity;BMP_temperature;BMP_pressure;BME280_temperature;BME280_humidity;BME280_pressure;Samples;Min_cycle;Max_cycle;Signal;HPM_P1;HPM_P2
2022/05/07 00:01:09;;;;;;;0.00;0.00;;;19.20;65.30;;;;;;4210930;28;20562;-67
2022/05/07 00:03:32;;;;;;;0.22;0.22;;;19.20;65.40;;;;;;4211315;28;20402;-67
2022/05/07 00:05:54;;;;;;;0.70;0.70;;;19.20;65.30;;;;;;4211395;28;20062;-67
2022/05/07 00:08:17;;;;;;;0.00;0.00;;;19.20;65.90;;;;;;4211198;28;20560;-67
2022/05/07 00:10:41;;;;;;;0.22;0.22;;;19.10;65.50;;;;;;4211362;28;20051;-67
2022/05/07 00:13:04;;;;;;;0.20;0.20;;;19.10;65.50;;;;;;4194183;28;20068;-67
2022/05/07 00:15:26;;;;;;;0.43;0.43;;;19.10;65.50;;;;;;4194490;28;20528;-67
2022/05/07 00:18:04;;;;;;;0.10;0.10;;;19.10;65.60;;;;;;4194428;28;20064;-67
2022/05/07 00:20:27;;;;;;;0.45;0.45;;;19.20;65.60;;;;;;4193501;28;20083;-66
2022/05/07 00:22:49;;;;;;;0.20;0.20;;;19.10;65.70;;;;;;4194456;28;20554;-68
2022/05/07 00:25:13;;;;;;;0.00;0.00;;;19.10;65.70;;;;;;4194110;28;20048;-67
2022/05/07 00:27:35;;;;;;;0.50;0.50;;;19.10;65.70;;;;;;4193753;28;20149;-68
2022/05/07 00:29:57;;;;;;;0.08;0.08;;;19.10;65.70;;;;;;4193034;28;20059;-68
2022/05/07 00:32:20;;;;;;;0.40;0.40;;;19.10;65.90;;;;;;4192970;28;20052;-69
2022/05/07 00:34:42;;;;;;;0.00;0.00;;;19.10;65.90;;;;;;4194453;28;20128;-68
2022/05/07 00:37:05;;;;;;;0.40;0.40;;;19.10;65.90;;;;;;4208234;28;20125;-68
2022/05/07 00:39:27;;;;;;;0.10;0.10;;;19.10;65.90;;;;;;4210700;28;20058;-67
2022/05/07 00:41:51;;;;;;;6.65;1.95;;;19.00;65.90;;;;;;4210883;28;20105;-68
2022/05/07 00:44:13;;;;;;;1.02;0.47;;;19.10;66.10;;;;;;4208616;28;20044;-67
2022/05/07 00:46:35;;;;;;;1.15;1.00;;;19.10;66.20;;;;;;4210297;28;20044;-68
2022/05/07 00:48:57;;;;;;;0.00;0.00;;;19.10;66.20;;;;;;4208547;28;20483;-67
2022/05/07 00:51:34;;;;;;;0.10;0.10;;;19.10;66.30;;;;;;4211521;28;20059;-67
2022/05/07 00:53:58;;;;;;;2.17;1.15;;;19.00;66.30;;;;;;4207089;28;20487;-67
2022/05/07 00:56:21;;;;;;;0.00;0.00;;;19.00;66.30;;;;;;4210802;28;20125;-68
2022/05/07 00:58:44;;;;;;;0.00;0.00;;;19.00;66.30;;;;;;4210241;28;20047;-67
2022/05/07 01:01:09;;;;;;;0.08;0.08;;;19.00;66.30;;;;;;4209087;28;20056;-67
2022/05/07 01:03:31;;;;;;;0.10;0.10;;;19.00;66.30;;;;;;4208928;28;20101;-67
2022/05/07 01:05:55;;;;;;;0.30;0.30;;;19.00;67.20;;;;;;4208157;28;20044;-67
2022/05/07 01:08:19;;;;;;;1.00;0.90;;;19.00;66.40;;;;;;4210193;28;20048;-67
2022/05/07 01:10:42;;;;;;;0.20;0.20;;;19.00;66.40;;;;;;4210457;28;20138;-67
2022/05/07 01:13:05;;;;;;;0.88;0.70;;;19.00;66.40;;;;;;4210224;28;20060;-67
2022/05/07 01:15:28;;;;;;;0.22;0.22;;;19.00;66.50;;;;;;4210827;28;20109;-67
2022/05/07 01:17:50;;;;;;;0.10;0.10;;;19.00;66.40;;;;;;4209040;28;20054;-69
2022/05/07 01:20:14;;;;;;;0.85;0.85;;;19.00;66.40;;;;;;4208834;28;20044;-67
2022/05/07 01:22:39;;;;;;;1.17;0.95;;;19.00;66.50;;;;;;4208631;28;20060;-67
2022/05/07 01:25:05;;;;;;;0.03;0.03;;;19.00;66.50;;;;;;4208195;28;20146;-66
2022/05/07 01:27:28;;;;;;;0.30;0.20;;;19.00;66.40;;;;;;4208514;28;20652;-67
2022/05/07 01:29:50;;;;;;;0.43;0.43;;;19.00;66.50;;;;;;4208321;28;20052;-67
2022/05/07 01:32:12;;;;;;;2.70;1.45;;;18.90;66.60;;;;;;4209779;28;20487;-67
2022/05/07 01:34:35;;;;;;;0.15;0.15;;;18.90;66.50;;;;;;4208295;28;20109;-67
2022/05/07 01:36:57;;;;;;;0.38;0.38;;;18.90;66.50;;;;;;4208118;28;20040;-68
2022/05/07 01:39:21;;;;;;;1.45;0.90;;;18.90;66.50;;;;;;4194001;28;20051;-66
2022/05/07 01:41:43;;;;;;;0.20;0.20;;;18.90;66.60;;;;;;4208197;28;20054;-67
2022/05/07 01:44:05;;;;;;;0.13;0.13;;;18.90;66.60;;;;;;4209489;28;20101;-67
2022/05/07 01:49:11;;;;;;;0.50;0.50;;;18.90;66.70;;;;;;4208049;28;20055;-67
2022/05/07 01:51:35;;;;;;;0.85;0.85;;;18.90;66.70;;;;;;4209444;28;20044;-67
2022/05/07 01:53:58;;;;;;;0.10;0.10;;;18.90;66.80;;;;;;4208188;28;20048;-68
2022/05/07 01:56:22;;;;;;;0.63;0.63;;;18.90;66.80;;;;;;4206877;28;20114;-67
2022/05/07 01:58:46;;;;;;;0.95;0.95;;;18.90;66.90;;;;;;4207615;28;20164;-67
2022/05/07 02:01:10;;;;;;;0.93;0.90;;;18.90;66.90;;;;;;4207392;28;20418;-67
2022/05/07 02:03:33;;;;;;;1.45;1.40;;;18.80;67.00;;;;;;4208062;28;20574;-69
2022/05/07 02:05:55;;;;;;;0.00;0.00;;;18.80;66.90;;;;;;4208063;28;20048;-68
2022/05/07 02:08:17;;;;;;;1.42;1.33;;;18.90;66.90;;;;;;4207931;28;20048;-67
2022/05/07 02:10:40;;;;;;;2.35;1.80;;;18.90;67.00;;;;;;4207028;28;20044;-67
2022/05/07 02:13:04;;;;;;;0.00;0.00;;;18.80;67.10;;;;;;4207665;28;20058;-68
2022/05/07 02:15:29;;;;;;;0.10;0.10;;;18.80;67.20;;;;;;4207404;28;20049;-68
2022/05/07 02:17:52;;;;;;;0.20;0.20;;;18.80;67.10;;;;;;4208130;28;20121;-68
2022/05/07 02:20:14;;;;;;;1.65;1.50;;;18.80;67.10;;;;;;4209190;28;20048;-68
2022/05/07 02:22:36;;;;;;;0.00;0.00;;;18.80;67.20;;;;;;4209181;28;20040;-68
2022/05/07 02:24:58;;;;;;;0.20;0.20;;;18.80;67.20;;;;;;4207752;28;20576;-70
2022/05/07 02:27:20;;;;;;;0.30;0.30;;;18.80;67.20;;;;;;4209022;28;20055;-68
2022/05/07 02:29:44;;;;;;;0.65;0.65;;;18.80;68.10;;;;;;4207760;28;20598;-68
2022/05/07 02:32:07;;;;;;;0.30;0.30;;;18.80;67.30;;;;;;4208121;28;20127;-68
2022/05/07 02:34:37;;;;;;;0.15;0.15;;;18.80;67.30;;;;;;4206669;28;20567;-67
2022/05/07 02:37:07;;;;;;;0.10;0.10;;;18.80;67.40;;;;;;4207241;28;20050;-68
2022/05/07 02:39:30;;;;;;;0.00;0.00;;;18.80;67.40;;;;;;4207784;28;20048;-68
2022/05/07 02:44:32;;;;;;;0.85;0.57;;;18.80;67.60;;;;;;4202762;28;20075;-69
2022/05/07 02:46:57;;;;;;;1.02;1.02;;;18.80;67.50;;;;;;4208400;28;20047;-68
2022/05/07 02:49:20;;;;;;;0.00;0.00;;;18.80;67.60;;;;;;4206592;28;20101;-68
2022/05/07 02:51:42;;;;;;;0.85;0.85;;;18.80;67.60;;;;;;4210221;28;20117;-69
2022/05/07 02:54:05;;;;;;;0.30;0.30;;;18.80;67.60;;;;;;4208607;28;20048;-68
2022/05/07 02:56:28;;;;;;;0.88;0.88;;;18.80;67.60;;;;;;4208645;28;20062;-69
2022/05/07 02:58:50;;;;;;;1.67;1.67;;;18.80;67.60;;;;;;4206135;28;20107;-68
2022/05/07 03:01:11;;;;;;;0.88;0.55;;;18.80;67.70;;;;;;4207518;28;20531;-68
2022/05/07 03:03:36;;;;;;;0.17;0.17;;;18.70;67.70;;;;;;4190732;28;20051;-69
2022/05/07 03:06:00;;;;;;;0.00;0.00;;;18.80;68.60;;;;;;4196570;28;20097;-68
2022/05/07 03:08:23;;;;;;;1.67;1.58;;;18.70;67.70;;;;;;4208768;28;20105;-68
2022/05/07 03:10:45;;;;;;;0.05;0.05;;;18.70;67.80;;;;;;4208601;28;20052;-69
2022/05/07 03:13:07;;;;;;;7.28;2.25;;;18.80;67.90;;;;;;4207301;28;20153;-69
2022/05/07 03:15:29;;;;;;;0.82;0.82;;;18.80;67.80;;;;;;4190913;28;20076;-70
2022/05/07 03:17:52;;;;;;;1.48;1.13;;;18.70;67.80;;;;;;4190564;28;20059;-69
2022/05/07 03:20:17;;;;;;;0.60;0.60;;;18.80;67.90;;;;;;4190851;28;20059;-68
2022/05/07 03:22:41;;;;;;;0.15;0.15;;;18.80;67.90;;;;;;4191935;28;20045;-68
2022/05/07 03:25:04;;;;;;;0.95;0.40;;;18.70;67.90;;;;;;4192590;28;20145;-70
2022/05/07 03:27:29;;;;;;;0.25;0.25;;;18.80;68.00;;;;;;4207233;28;20048;-70
2022/05/07 03:29:51;;;;;;;1.50;1.15;;;18.80;68.00;;;;;;4206767;28;20564;-68
2022/05/07 03:32:15;;;;;;;1.55;1.55;;;18.70;68.00;;;;;;4207153;28;20044;-70
2022/05/07 03:34:45;;;;;;;3.05;1.33;;;18.70;67.90;;;;;;4206158;28;20044;-69
2022/05/07 03:37:08;;;;;;;4.47;0.65;;;18.70;68.00;;;;;;4206744;28;20121;-69
2022/05/07 03:39:31;;;;;;;0.80;0.80;;;18.70;68.00;;;;;;4207113;28;20052;-69
2022/05/07 03:41:54;;;;;;;4.35;1.13;;;18.70;68.10;;;;;;4207189;28;20068;-70
2022/05/07 03:44:17;;;;;;;0.90;0.90;;;18.70;68.10;;;;;;4192831;28;20056;-69
2022/05/07 03:46:39;;;;;;;0.38;0.38;;;18.70;68.20;;;;;;4208631;28;20050;-70
2022/05/07 03:49:02;;;;;;;0.60;0.60;;;18.70;68.20;;;;;;4207041;28;20047;-70
2022/05/07 03:51:26;;;;;;;0.55;0.55;;;18.70;68.30;;;;;;4206956;28;20122;-69
2022/05/07 03:53:58;;;;;;;0.30;0.30;;;18.70;68.30;;;;;;4207978;28;20055;-69
2022/05/07 03:56:20;;;;;;;0.25;0.25;;;18.70;68.50;;;;;;4210240;28;20055;-70
2022/05/07 03:58:42;;;;;;;0.15;0.15;;;18.70;68.50;;;;;;4209773;28;20059;-67
2022/05/07 04:01:10;;;;;;;0.08;0.08;;;18.70;68.50;;;;;;4211279;28;20055;-69
2022/05/07 04:03:33;;;;;;;0.43;0.43;;;18.70;68.50;;;;;;4209813;28;20124;-69
2022/05/07 04:05:55;;;;;;;0.20;0.20;;;18.70;68.50;;;;;;4211280;28;20040;-68
2022/05/07 04:08:19;;;;;;;0.17;0.17;;;18.70;68.50;;;;;;4195681;28;20071;-69
2022/05/07 04:10:43;;;;;;;0.30;0.30;;;18.70;68.70;;;;;;4210065;28;20464;-68
2022/05/07 04:13:08;;;;;;;0.45;0.45;;;18.70;68.70;;;;;;4209068;28;20051;-68
2022/05/07 04:15:31;;;;;;;3.40;2.58;;;18.70;68.50;;;;;;4209386;28;20044;-69
2022/05/07 04:17:55;;;;;;;0.10;0.10;;;18.70;68.60;;;;;;4210035;28;20048;-69
2022/05/07 04:20:17;;;;;;;0.20;0.20;;;18.70;68.60;;;;;;4209784;28;20098;-70
2022/05/07 04:22:44;;;;;;;0.40;0.40;;;18.70;68.70;;;;;;4209704;28;20056;-69
2022/05/07 04:25:12;;;;;;;0.52;0.52;;;18.70;68.70;;;;;;4209284;28;20154;-68
2022/05/07 04:27:38;;;;;;;0.98;0.98;;;18.70;68.70;;;;;;4209391;28;20044;-69
2022/05/07 04:30:02;;;;;;;1.35;0.73;;;18.70;68.70;;;;;;4209678;28;20044;-69
2022/05/07 04:32:25;;;;;;;3.17;2.30;;;18.60;68.70;;;;;;4209432;28;20055;-68
2022/05/07 04:34:50;;;;;;;0.25;0.25;;;18.70;68.90;;;;;;4209525;28;20499;-69
2022/05/07 04:37:13;;;;;;;0.38;0.38;;;18.70;68.90;;;;;;4209156;28;20050;-69
2022/05/07 04:39:35;;;;;;;0.77;0.77;;;18.70;68.90;;;;;;4209416;28;20116;-68
2022/05/07 04:42:00;;;;;;;0.00;0.00;;;18.60;69.00;;;;;;4209725;28;20056;-68
2022/05/07 04:44:34;;;;;;;0.90;0.73;;;18.60;69.00;;;;;;4208463;28;20138;-69
2022/05/07 04:46:57;;;;;;;0.10;0.10;;;18.70;69.10;;;;;;4209182;28;20054;-68
2022/05/07 04:49:21;;;;;;;0.98;0.98;;;18.70;69.10;;;;;;4208944;28;20073;-67
2022/05/07 04:51:44;;;;;;;0.15;0.15;;;18.70;69.10;;;;;;4209227;28;20047;-68
2022/05/07 04:54:12;;;;;;;0.55;0.55;;;18.60;69.10;;;;;;4209260;28;20489;-69
2022/05/07 04:56:36;;;;;;;0.52;0.52;;;18.70;69.30;;;;;;4208327;28;20059;-67
2022/05/07 04:59:00;;;;;;;0.10;0.10;;;18.70;69.40;;;;;;4210701;28;20055;-69
2022/05/07 05:01:31;;;;;;;0.15;0.15;;;18.60;69.30;;;;;;4208665;28;20055;-68
2022/05/07 05:03:55;;;;;;;0.52;0.52;;;18.60;69.30;;;;;;4209053;28;20490;-68
2022/05/07 05:06:21;;;;;;;0.30;0.30;;;18.60;69.30;;;;;;4207880;28;20410;-67
2022/05/07 05:08:59;;;;;;;0.40;0.40;;;18.60;69.30;;;;;;4208365;28;20127;-71
2022/05/07 05:11:23;;;;;;;0.57;0.57;;;18.70;69.40;;;;;;4208940;28;20145;-68
2022/05/07 05:13:46;;;;;;;0.22;0.22;;;18.60;69.30;;;;;;4210223;28;20044;-68
2022/05/07 05:16:09;;;;;;;0.38;0.35;;;18.70;69.40;;;;;;4208841;28;20048;-68
2022/05/07 05:18:40;;;;;;;0.90;0.90;;;18.60;69.40;;;;;;4208349;28;20062;-67
2022/05/07 05:21:05;;;;;;;0.50;0.50;;;18.70;69.40;;;;;;4208379;28;20048;-72
2022/05/07 05:23:46;;;;;;;0.40;0.40;;;18.60;69.50;;;;;;4208402;28;20043;-70
2022/05/07 05:26:09;;;;;;;6.82;4.63;;;18.60;70.10;;;;;;4207673;28;20127;-70
2022/05/07 05:28:40;;;;;;;0.28;0.28;;;18.70;70.20;;;;;;4207910;28;20078;-70
2022/05/07 05:31:05;;;;;;;3.38;3.08;;;18.70;70.00;;;;;;4208940;28;20071;-72
2022/05/07 05:33:32;;;;;;;0.32;0.32;;;18.70;71.00;;;;;;4211068;28;20487;-72
2022/05/07 05:36:05;;;;;;;1.27;1.15;;;18.70;70.00;;;;;;4195010;28;20051;-71
2022/05/07 05:38:30;;;;;;;1.50;1.48;;;18.70;69.90;;;;;;4207871;28;20529;-69
2022/05/07 05:40:53;;;;;;;5.07;1.65;;;18.60;69.70;;;;;;4191617;28;20062;-71
2022/05/07 05:43:15;;;;;;;0.28;0.28;;;18.60;69.80;;;;;;4193188;28;20076;-71
2022/05/07 05:45:41;;;;;;;4.68;1.58;;;18.70;72.00;;;;;;4208158;28;20044;-71
2022/05/07 05:48:06;;;;;;;2.40;2.17;;;18.70;76.00;;;;;;4206936;28;20138;-69
2022/05/07 05:50:29;;;;;;;3.08;2.92;;;18.70;79.80;;;;;;4207880;28;20081;-69
2022/05/07 05:52:52;;;;;;;0.77;0.77;;;18.80;81.50;;;;;;4208137;28;20044;-69
2022/05/07 05:55:14;;;;;;;1.95;1.65;;;18.80;83.50;;;;;;4209561;28;20055;-69
2022/05/07 05:57:37;;;;;;;1.95;1.80;;;18.80;84.80;;;;;;4208887;28;20089;-69
2022/05/07 06:00:01;;;;;;;8.07;2.72;;;18.80;84.60;;;;;;4208176;28;20044;-69
2022/05/07 06:02:34;;;;;;;1.50;1.40;;;18.80;83.70;;;;;;4208718;28;20054;-69
2022/05/07 06:04:59;;;;;;;1.52;1.52;;;18.80;83.40;;;;;;4208528;28;20383;-68
2022/05/07 06:07:24;;;;;;;5.95;1.17;;;18.80;83.30;;;;;;4210147;28;20060;-68
2022/05/07 06:09:52;;;;;;;1.45;1.35;;;18.80;82.50;;;;;;4208365;28;20121;-68
2022/05/07 06:12:18;;;;;;;0.47;0.17;;;18.80;80.90;;;;;;4207690;28;20051;-68
2022/05/07 06:14:39;;;;;;;0.77;0.77;;;18.80;79.20;;;;;;4209260;28;20059;-69
2022/05/07 06:17:01;;;;;;;0.00;0.00;;;18.80;78.20;;;;;;4208020;28;20097;-69
2022/05/07 06:19:24;;;;;;;0.55;0.55;;;18.80;77.90;;;;;;4206913;28;20525;-69
2022/05/07 06:21:48;;;;;;;0.55;0.55;;;18.80;77.20;;;;;;4207557;28;20043;-70
2022/05/07 06:29:35;;;;;;;1.05;0.93;;;18.70;75.90;;;;;;4174586;28;20053;-69
2022/05/07 06:31:57;;;;;;;0.57;0.57;;;18.80;75.70;;;;;;4151411;28;20187;-69
2022/05/07 06:34:22;;;;;;;3.03;2.55;;;18.80;75.40;;;;;;4152645;28;20140;-69
2022/05/07 06:36:48;;;;;;;1.08;0.82;;;18.80;76.00;;;;;;4138088;28;20419;-68
2022/05/07 06:39:10;;;;;;;0.00;0.00;;;18.80;74.90;;;;;;4173140;28;20048;-69
2022/05/07 06:41:32;;;;;;;1.95;1.85;;;18.80;74.70;;;;;;4173466;28;20041;-68
2022/05/07 06:44:01;;;;;;;5.65;1.75;;;18.80;74.50;;;;;;4159385;28;20556;-69
2022/05/07 06:46:28;;;;;;;0.20;0.20;;;18.70;74.40;;;;;;4158285;28;20061;-69
2022/05/07 06:48:58;;;;;;;0.73;0.73;;;18.70;74.20;;;;;;4159017;28;20123;-69
2022/05/07 06:51:34;;;;;;;0.73;0.63;;;18.70;74.10;;;;;;4150202;28;20127;-69
2022/05/07 06:53:56;;;;;;;0.75;0.75;;;18.80;74.00;;;;;;4173014;28;20048;-68
2022/05/07 06:56:18;;;;;;;1.02;1.02;;;18.80;73.90;;;;;;4173276;28;20072;-69
2022/05/07 06:58:41;;;;;;;1.75;1.65;;;18.80;73.70;;;;;;4173371;28;20183;-69
2022/05/07 07:01:06;;;;;;;0.10;0.10;;;18.80;73.60;;;;;;4197597;28;20452;-68
2022/05/07 07:03:29;;;;;;;1.77;1.55;;;18.90;73.50;;;;;;4208398;28;20117;-68
2022/05/07 07:05:52;;;;;;;0.95;0.95;;;18.90;73.20;;;;;;4208846;28;20067;-68
2022/05/07 07:08:20;;;;;;;0.30;0.30;;;18.90;73.10;;;;;;4208367;28;20129;-68
2022/05/07 07:10:43;;;;;;;0.30;0.30;;;18.90;72.90;;;;;;4207357;28;20071;-68
2022/05/07 07:13:05;;;;;;;0.20;0.20;;;18.90;73.50;;;;;;4207396;28;20469;-69
2022/05/07 07:15:28;;;;;;;0.35;0.35;;;18.90;72.40;;;;;;4208605;28;20139;-68
2022/05/07 07:17:51;;;;;;;0.65;0.65;;;18.90;72.50;;;;;;4192094;28;20221;-69
2022/05/07 07:20:14;;;;;;;0.25;0.25;;;18.90;72.20;;;;;;4191923;28;20055;-67
2022/05/07 07:22:36;;;;;;;1.38;1.38;;;18.90;72.00;;;;;;4192108;28;20051;-68
2022/05/07 07:25:00;;;;;;;0.40;0.40;;;18.90;72.00;;;;;;4192176;28;20129;-68
2022/05/07 07:27:22;;;;;;;1.45;0.95;;;18.90;72.00;;;;;;4191952;28;20060;-68
2022/05/07 07:29:47;;;;;;;0.45;0.45;;;18.90;71.90;;;;;;4210920;28;20075;-68
2022/05/07 07:32:10;;;;;;;0.70;0.70;;;18.90;71.80;;;;;;4212055;28;20471;-68
2022/05/07 07:34:33;;;;;;;0.20;0.20;;;18.90;71.70;;;;;;4212170;28;20071;-68
2022/05/07 07:36:55;;;;;;;0.20;0.20;;;18.90;71.70;;;;;;4211489;28;20047;-67
2022/05/07 07:39:17;;;;;;;1.85;0.75;;;19.00;71.70;;;;;;4194977;28;20136;-68
2022/05/07 07:41:39;;;;;;;1.65;0.85;;;18.90;71.30;;;;;;4195335;28;20068;-68
2022/05/07 07:44:01;;;;;;;0.85;0.85;;;18.90;71.80;;;;;;4202033;28;20379;-69
2022/05/07 07:49:07;;;;;;;1.48;1.45;;;18.90;70.60;;;;;;4211924;28;20040;-68
2022/05/07 07:51:30;;;;;;;0.45;0.45;;;19.00;70.50;;;;;;4211499;28;20059;-68
2022/05/07 07:53:52;;;;;;;1.02;1.02;;;19.00;70.30;;;;;;4211701;28;20056;-68
2022/05/07 07:56:14;;;;;;;0.15;0.15;;;19.00;70.30;;;;;;4210360;28;20043;-68
2022/05/07 07:58:36;;;;;;;0.98;0.98;;;19.00;70.30;;;;;;4211291;28;20097;-69
2022/05/07 08:00:58;;;;;;;0.13;0.13;;;19.00;70.30;;;;;;4211186;28;20445;-68
2022/05/07 08:03:21;;;;;;;0.28;0.28;;;19.00;70.30;;;;;;4211386;28;20051;-69
2022/05/07 08:05:44;;;;;;;0.60;0.60;;;19.00;70.40;;;;;;4209918;28;20052;-68
2022/05/07 08:13:32;;;;;;;0.00;0.00;;;19.10;71.20;;;;;;4198648;28;20441;-68
2022/05/07 08:15:55;;;;;;;0.52;0.52;;;19.10;70.20;;;;;;4211880;28;20558;-68
2022/05/07 08:18:18;;;;;;;1.10;1.02;;;19.20;70.00;;;;;;4210961;28;20075;-68
2022/05/07 08:20:41;;;;;;;0.00;0.00;;;19.20;69.90;;;;;;4210108;28;20476;-68
2022/05/07 08:23:03;;;;;;;2.42;1.98;;;19.20;69.90;;;;;;4210914;28;20447;-68
2022/05/07 08:25:27;;;;;;;0.08;0.08;;;19.20;69.90;;;;;;4210867;28;20067;-68
2022/05/07 08:27:49;;;;;;;0.75;0.75;;;19.30;70.10;;;;;;4210555;28;20054;-68
2022/05/07 08:30:12;;;;;;;0.98;0.98;;;19.30;70.10;;;;;;4211138;28;20066;-69
2022/05/07 08:32:35;;;;;;;0.45;0.45;;;19.30;70.10;;;;;;4210842;28;20467;-69
2022/05/07 08:34:57;;;;;;;1.25;1.25;;;19.30;70.00;;;;;;4210719;28;20093;-69
2022/05/07 08:37:20;;;;;;;0.65;0.65;;;19.30;70.00;;;;;;4209599;28;20047;-64
2022/05/07 08:39:42;;;;;;;0.00;0.00;;;19.30;69.80;;;;;;4208443;28;20048;-64
2022/05/07 08:42:07;;;;;;;0.17;0.17;;;19.30;69.90;;;;;;4210620;28;20044;-64
2022/05/07 08:44:32;;;;;;;0.35;0.35;;;19.30;70.00;;;;;;4210062;28;20431;-65
2022/05/07 08:46:54;;;;;;;3.00;0.75;;;19.30;69.90;;;;;;4210626;28;20048;-65
2022/05/07 08:49:17;;;;;;;0.88;0.88;;;19.30;69.90;;;;;;4210886;28;20351;-64
2022/05/07 08:51:39;;;;;;;1.83;1.77;;;19.40;70.00;;;;;;4210746;28;20044;-64
2022/05/07 08:54:02;;;;;;;1.10;1.10;;;19.40;70.00;;;;;;4210139;28;20098;-64
2022/05/07 08:56:25;;;;;;;5.82;3.47;;;19.40;69.80;;;;;;4209668;28;20495;-64
2022/05/07 08:58:49;;;;;;;0.80;0.80;;;19.40;69.70;;;;;;4210660;28;20047;-65
2022/05/07 09:01:11;;;;;;;1.02;1.02;;;19.40;69.60;;;;;;4210452;28;20056;-65
2022/05/07 09:03:41;;;;;;;2.78;2.60;;;19.40;69.60;;;;;;4210291;28;20090;-64
2022/05/07 09:06:03;;;;;;;0.03;0.03;;;19.40;69.60;;;;;;4211051;28;20734;-65
2022/05/07 09:08:27;;;;;;;1.38;1.38;;;19.40;69.60;;;;;;4209032;28;20062;-65
2022/05/07 09:10:54;;;;;;;0.20;0.20;;;19.40;69.80;;;;;;4210521;28;20552;-65
2022/05/07 09:13:18;;;;;;;0.20;0.20;;;19.40;70.70;;;;;;4194222;28;20052;-65
2022/05/07 09:15:52;;;;;;;0.77;0.77;;;19.40;70.00;;;;;;4194032;28;20047;-64
2022/05/07 09:18:15;;;;;;;3.65;0.43;;;19.30;70.00;;;;;;4208400;28;20110;-63
2022/05/07 09:20:37;;;;;;;0.45;0.45;;;19.30;70.30;;;;;;4210231;28;20054;-62
2022/05/07 09:22:59;;;;;;;0.35;0.35;;;19.30;70.40;;;;;;4210212;28;20052;-62
2022/05/07 09:25:22;;;;;;;0.17;0.17;;;19.30;70.50;;;;;;4193434;28;20047;-62
2022/05/07 09:27:46;;;;;;;3.22;0.65;;;19.30;70.90;;;;;;4192746;28;20071;-62
2022/05/07 09:30:10;;;;;;;0.63;0.63;;;19.40;71.80;;;;;;4193650;28;20052;-62
2022/05/07 09:32:38;;;;;;;0.52;0.52;;;19.30;72.00;;;;;;4207634;28;20044;-63
2022/05/07 09:37:40;;;;;;;1.17;1.17;;;19.40;71.80;;;;;;4209827;28;20040;-63
2022/05/07 09:40:06;;;;;;;1.10;0.95;;;19.40;71.60;;;;;;4209730;28;20567;-63
2022/05/07 09:42:27;;;;;;;2.08;1.80;;;19.40;71.50;;;;;;4208608;28;20075;-63
2022/05/07 09:44:50;;;;;;;1.17;1.17;;;19.40;71.40;;;;;;4206653;28;20513;-63
2022/05/07 09:47:13;;;;;;;0.43;0.43;;;19.40;72.10;;;;;;4209693;28;20043;-62
2022/05/07 09:50:19;;;;;;;1.85;1.50;;;19.40;71.00;;;;;;4207602;28;20495;-63
2022/05/07 09:52:21;;;;;;;0.00;0.00;;;19.50;71.00;;;;;;4208214;28;20564;-63
2022/05/07 09:57:31;;;;;;;2.42;0.65;;;19.50;70.60;;;;;;4208036;28;20142;-64
2022/05/07 09:59:53;;;;;;;0.28;0.28;;;19.50;70.30;;;;;;4209080;28;20075;-63
2022/05/07 10:02:32;;;;;;;1.65;1.65;;;19.50;70.10;;;;;;4209308;28;20074;-63
2022/05/07 10:05:25;;;;;;;2.38;0.35;;;19.50;69.90;;;;;;4208557;28;20051;-63
2022/05/07 10:08:06;;;;;;;1.70;1.60;;;19.50;70.70;;;;;;4196291;28;20514;-63
2022/05/07 10:10:31;;;;;;;1.63;0.82;;;19.50;70.60;;;;;;4201359;27;20047;-63
2022/05/07 10:12:55;;;;;;;2.72;1.27;;;19.50;69.60;;;;;;4219765;27;20100;-66
2022/05/07 10:15:23;;;;;;;0.30;0.30;;;19.50;69.40;;;;;;4209294;28;20072;-62
2022/05/07 10:17:48;;;;;;;0.47;0.47;;;19.60;69.30;;;;;;4208629;28;20202;-62
2022/05/07 10:20:13;;;;;;;6.53;1.23;;;19.60;69.20;;;;;;4208797;28;20059;-63
2022/05/07 10:22:36;;;;;;;0.10;0.10;;;19.60;69.00;;;;;;4208278;28;20055;-62
2022/05/07 10:25:07;;;;;;;13.52;2.47;;;19.60;68.90;;;;;;4207726;28;20051;-62
2022/05/07 10:27:31;;;;;;;0.57;0.57;;;19.60;68.90;;;;;;4209246;28;20153;-63
2022/05/07 10:30:04;;;;;;;0.55;0.55;;;19.60;68.70;;;;;;4209354;28;20051;-63
2022/05/07 10:32:26;;;;;;;0.20;0.20;;;19.70;68.70;;;;;;4195043;28;20051;-62
2022/05/07 10:34:53;;;;;;;1.02;1.02;;;19.70;68.70;;;;;;4198755;28;20048;-62
2022/05/07 10:37:15;;;;;;;2.60;0.65;;;19.70;68.40;;;;;;4208501;28;20048;-63
2022/05/07 10:39:37;;;;;;;0.20;0.20;;;19.70;68.20;;;;;;4208899;28;20498;-63
2022/05/07 10:42:02;;;;;;;6.80;1.98;;;19.70;69.00;;;;;;4208623;28;20051;-63
2022/05/07 10:44:31;;;;;;;13.60;3.63;;;19.70;68.00;;;;;;4209119;28;20439;-63
2022/05/07 10:46:53;;;;;;;1.77;1.67;;;19.80;67.80;;;;;;4208356;28;20047;-63
2022/05/07 10:49:18;;;;;;;2.80;1.02;;;19.80;67.80;;;;;;4208764;28;20044;-63
2022/05/07 10:51:50;;;;;;;1.33;1.33;;;19.80;67.80;;;;;;4208726;28;20044;-63
2022/05/07 10:54:19;;;;;;;2.08;1.98;;;19.80;67.70;;;;;;4208587;28;20055;-62
2022/05/07 10:56:46;;;;;;;2.28;2.17;;;19.80;67.60;;;;;;4208358;28;20127;-63
2022/05/07 10:59:11;;;;;;;1.50;1.48;;;19.80;67.50;;;;;;4197187;28;20093;-63
2022/05/07 11:01:34;;;;;;;1.55;1.45;;;19.80;67.50;;;;;;4208472;28;20102;-63
2022/05/07 11:04:04;;;;;;;3.40;3.15;;;19.90;67.40;;;;;;4210015;28;20056;-62
2022/05/07 11:06:26;;;;;;;1.52;1.52;;;19.90;67.50;;;;;;4211191;28;20054;-63
2022/05/07 11:08:50;;;;;;;1.77;1.70;;;19.90;67.40;;;;;;4211419;28;20135;-62
2022/05/07 11:11:14;;;;;;;1.42;1.33;;;19.90;67.40;;;;;;4212495;28;20083;-63
2022/05/07 11:13:45;;;;;;;2.60;2.50;;;19.90;67.40;;;;;;4211938;28;20502;-62
2022/05/07 11:16:08;;;;;;;0.45;0.45;;;19.90;67.40;;;;;;4211811;28;20066;-63
2022/05/07 11:18:33;;;;;;;1.77;1.33;;;19.90;67.10;;;;;;4211823;28;20578;-62
2022/05/07 11:21:02;;;;;;;2.28;2.20;;;19.90;67.20;;;;;;4198319;28;20052;-63
2022/05/07 11:23:24;;;;;;;2.30;2.15;;;19.90;67.20;;;;;;4210495;28;20051;-62
2022/05/07 11:25:46;;;;;;;1.75;1.73;;;19.90;67.30;;;;;;4211716;28;20127;-62
2022/05/07 11:28:11;;;;;;;1.35;1.30;;;19.80;67.50;;;;;;4210474;28;20838;-64
2022/05/07 11:30:32;;;;;;;0.82;0.82;;;19.80;67.50;;;;;;4209462;28;20421;-63
2022/05/07 11:33:03;;;;;;;0.88;0.88;;;19.80;67.70;;;;;;4210720;28;20051;-66
2022/05/07 11:35:26;;;;;;;0.38;0.38;;;19.80;68.00;;;;;;4206044;28;20055;-63
2022/05/07 11:37:48;;;;;;;5.30;2.42;;;19.80;68.00;;;;;;4199991;28;20044;-63
2022/05/07 11:40:11;;;;;;;2.22;1.88;;;19.80;68.40;;;;;;4211585;28;20406;-64
2022/05/07 11:42:36;;;;;;;7.00;2.08;;;19.80;68.50;;;;;;4212006;28;20056;-64
2022/05/07 11:45:29;;;;;;;2.35;1.48;;;19.80;68.50;;;;;;4211495;28;20059;-64
2022/05/07 11:47:55;;;;;;;4.00;1.77;;;19.80;68.40;;;;;;4210775;28;20830;-64
2022/05/07 11:50:22;;;;;;;0.10;0.10;;;19.80;68.50;;;;;;4211101;28;20517;-64
2022/05/07 11:52:46;;;;;;;0.95;0.95;;;19.80;68.50;;;;;;4209851;28;20048;-64
2022/05/07 11:55:09;;;;;;;0.43;0.43;;;19.80;68.50;;;;;;4210889;28;20039;-63
2022/05/07 11:57:32;;;;;;;1.85;1.75;;;19.80;68.50;;;;;;4194318;28;20443;-63
2022/05/07 11:59:55;;;;;;;1.70;1.70;;;19.80;68.50;;;;;;4193582;28;20483;-63
2022/05/07 12:02:17;;;;;;;0.55;0.55;;;19.80;68.50;;;;;;4194695;28;20036;-64
2022/05/07 12:04:41;;;;;;;0.55;0.55;;;19.80;68.50;;;;;;4195139;28;20059;-64
2022/05/07 12:07:03;;;;;;;2.53;2.38;;;19.80;68.40;;;;;;4194046;28;20044;-64
2022/05/07 12:09:33;;;;;;;0.30;0.30;;;19.80;68.40;;;;;;4198999;28;20442;-63
2022/05/07 12:11:56;;;;;;;0.17;0.17;;;19.80;68.40;;;;;;4211372;28;20470;-63
2022/05/07 12:14:18;;;;;;;4.95;2.30;;;19.80;68.40;;;;;;4210480;28;20052;-63
2022/05/07 12:19:24;;;;;;;0.68;0.68;;;19.80;68.30;;;;;;4211018;28;20051;-64
2022/05/07 12:29:54;;;;;;;0.80;0.80;;;19.80;68.20;;;;;;4210628;28;20376;-64
2022/05/07 12:32:18;;;;;;;0.03;0.03;;;19.80;68.20;;;;;;4212048;28;20455;-64
2022/05/07 12:34:40;;;;;;;1.08;0.65;;;19.90;68.10;;;;;;4211819;28;20391;-63
2022/05/07 12:37:04;;;;;;;0.30;0.30;;;19.90;68.10;;;;;;4195421;28;20044;-64
2022/05/07 12:39:26;;;;;;;0.00;0.00;;;19.90;68.00;;;;;;4209185;28;20075;-63
2022/05/07 12:41:49;;;;;;;0.80;0.80;;;19.90;67.90;;;;;;4210883;28;20411;-64
2022/05/07 12:44:12;;;;;;;0.40;0.20;;;19.90;67.80;;;;;;4210778;28;20052;-64
2022/05/07 12:46:34;;;;;;;0.08;0.08;;;19.90;67.70;;;;;;4210549;28;20040;-63
2022/05/07 12:48:56;;;;;;;1.17;0.43;;;19.90;67.70;;;;;;4208510;28;20051;-63
2022/05/07 12:51:19;;;;;;;0.25;0.25;;;19.90;67.70;;;;;;4209138;28;20142;-64
2022/05/07 12:53:43;;;;;;;2.92;1.70;;;19.90;67.70;;;;;;4209112;28;20052;-63
2022/05/07 12:56:06;;;;;;;0.32;0.32;;;20.00;67.80;;;;;;4210854;28;20501;-63
2022/05/07 12:58:28;;;;;;;0.05;0.05;;;20.00;67.60;;;;;;4209640;28;20059;-64
2022/05/07 13:00:51;;;;;;;0.55;0.45;;;20.00;67.60;;;;;;4208890;28;20039;-64
2022/05/07 13:03:13;;;;;;;0.63;0.63;;;20.00;67.60;;;;;;4209482;28;20051;-64
2022/05/07 13:05:35;;;;;;;0.63;0.63;;;20.00;67.50;;;;;;4208621;28;20048;-64
2022/05/07 13:08:14;;;;;;;0.08;0.08;;;20.00;67.50;;;;;;4209792;28;20048;-64